Time;durP1;ratioP1;P1;durP2;ratioP2;P2;SDS_P1;SDS_P2;PMS_P1;PMS_P2;Temp;Humidity;BMP_temperature;BMP_pressure;BME280_temperature;BME280_humidity;BME280_pressure;Samples;Min_cycle;Max_cycle;Signal;HPM_P1;HPM_P2
2023/05/14 00:00:02;;;;;;;10.57;7.53;;;;;;;16.93;78.47;101894.72;4977683;28;20058;-73
2023/05/14 00:02:29;;;;;;;10.10;7.70;;;;;;;16.86;79.20;101883.13;4983243;28;20060;-72
2023/05/14 00:04:56;;;;;;;11.27;7.88;;;;;;;16.79;78.20;101879.41;4971696;28;20066;-72
2023/05/14 00:07:22;;;;;;;11.40;7.88;;;;;;;16.79;79.38;101877.59;4980181;28;20046;-72
2023/05/14 00:09:49;;;;;;;9.65;7.60;;;;;;;16.72;80.04;101883.69;4980016;28;20101;-72
2023/05/14 00:12:15;;;;;;;10.05;7.85;;;;;;;16.66;80.50;101885.19;4996463;28;20091;-72
2023/05/14 00:14:42;;;;;;;11.63;8.10;;;;;;;16.60;81.57;101896.38;4966526;28;20054;-72
2023/05/14 00:17:08;;;;;;;16.77;8.88;;;;;;;16.55;80.32;101888.94;4956653;28;20605;-73
2023/05/14 00:19:35;;;;;;;11.57;8.35;;;;;;;16.56;80.74;101893.25;4979638;28;20046;-72
2023/05/14 00:22:01;;;;;;;12.82;8.55;;;;;;;16.46;82.03;101889.06;4982176;28;20053;-72
2023/05/14 00:24:28;;;;;;;11.20;8.50;;;;;;;16.39;82.00;101880.94;4974157;28;20089;-72
2023/05/14 00:26:54;;;;;;;12.50;8.57;;;;;;;16.29;82.48;101874.91;4987523;28;20137;-72
2023/05/14 00:29:21;;;;;;;12.45;9.02;;;;;;;16.28;82.60;101887.31;4961832;28;20561;-72
2023/05/14 00:31:47;;;;;;;13.48;8.95;;;;;;;16.22;82.94;101882.66;4978607;28;20051;-72
2023/05/14 00:34:14;;;;;;;11.13;8.90;;;;;;;16.18;82.76;101876.84;4958457;28;20058;-73
2023/05/14 00:36:41;;;;;;;13.68;9.07;;;;;;;16.15;84.27;101881.63;4960579;28;20090;-71
2023/05/14 00:39:08;;;;;;;14.13;8.63;;;;;;;16.10;84.47;101870.69;4981030;28;20948;-73
2023/05/14 00:41:34;;;;;;;11.20;8.48;;;;;;;16.09;84.72;101875.16;4975800;28;20054;-72
2023/05/14 00:44:01;;;;;;;15.68;8.75;;;;;;;16.03;84.22;101867.81;4976402;28;20236;-72
2023/05/14 00:46:27;;;;;;;13.10;9.02;;;;;;;16.04;85.11;101869.50;4975278;28;20081;-72
2023/05/14 00:48:54;;;;;;;18.02;9.23;;;;;;;16.01;84.46;101870.66;4973595;28;20063;-73
2023/05/14 00:51:21;;;;;;;12.85;8.93;;;;;;;15.99;85.05;101862.03;4974105;28;20137;-72
2023/05/14 00:53:48;;;;;;;11.02;8.27;;;;;;;15.95;85.24;101863.31;4967923;28;20093;-72
2023/05/14 00:56:15;;;;;;;10.98;8.60;;;;;;;15.92;84.86;101861.00;4986778;28;20415;-72
2023/05/14 00:58:41;;;;;;;12.82;9.73;;;;;;;15.90;85.67;101862.16;4968074;28;20054;-72
2023/05/14 01:01:08;;;;;;;13.65;9.15;;;;;;;15.91;85.36;101858.50;4972023;28;20137;-72
2023/05/14 01:03:35;;;;;;;13.02;8.90;;;;;;;15.87;85.92;101859.81;4982218;28;20137;-72
2023/05/14 01:06:14;;;;;;;15.35;9.57;;;;;;;15.84;86.31;101855.66;4986327;28;20050;-72
2023/05/14 01:08:43;;;;;;;10.73;8.82;;;;;;;15.83;87.19;101859.28;4980130;28;20423;-72
2023/05/14 01:11:27;;;;;;;14.32;9.65;;;;;;;15.77;87.07;101852.78;4982425;28;20082;-73
2023/05/14 01:14:21;;;;;;;12.18;8.75;;;;;;;15.76;88.27;101860.91;4959169;28;20058;-73
2023/05/14 01:16:51;;;;;;;12.43;9.32;;;;;;;15.73;88.92;101846.16;4977830;28;20125;-72
2023/05/14 01:19:37;;;;;;;16.80;9.27;;;;;;;15.70;88.92;101848.25;4973492;28;20050;-72
2023/05/14 01:22:04;;;;;;;12.65;9.18;;;;;;;15.69;88.24;101852.72;4984740;28;20054;-73
2023/05/14 01:24:30;;;;;;;13.07;8.82;;;;;;;15.68;88.27;101847.56;4986198;28;20068;-72
2023/05/14 01:27:13;;;;;;;12.05;8.85;;;;;;;15.61;91.28;101848.19;4958657;28;20736;-72
2023/05/14 01:29:47;;;;;;;11.07;8.35;;;;;;;15.49;92.77;101856.53;4979022;28;20408;-72
2023/05/14 01:32:16;;;;;;;13.88;9.50;;;;;;;15.44;93.78;101854.34;4964468;28;20515;-72
2023/05/14 01:34:46;;;;;;;12.65;9.55;;;;;;;15.37;93.44;101848.03;4962831;28;20411;-72
2023/05/14 01:37:12;;;;;;;12.40;8.85;;;;;;;15.27;95.12;101848.09;4963645;28;20051;-72
2023/05/14 01:39:40;;;;;;;13.65;9.30;;;;;;;15.13;97.22;101841.53;4988465;28;20058;-73
2023/05/14 01:42:08;;;;;;;15.57;9.00;;;;;;;15.10;97.23;101843.66;4977268;28;20054;-73
2023/05/14 01:44:35;;;;;;;13.55;9.82;;;;;;;15.07;97.26;101850.06;4976299;28;20052;-72
2023/05/14 01:47:02;;;;;;;14.15;9.63;;;;;;;15.01;98.03;101851.50;4978870;28;20049;-72
2023/05/14 01:49:28;;;;;;;11.02;9.07;;;;;;;14.92;99.15;101841.00;4963385;28;20144;-73
2023/05/14 01:51:55;;;;;;;14.95;9.05;;;;;;;14.92;98.08;101841.84;4988521;28;20062;-72
2023/05/14 01:54:21;;;;;;;11.95;8.95;;;;;;;14.85;99.47;101848.69;4986508;28;20112;-72
2023/05/14 01:56:48;;;;;;;14.93;8.90;;;;;;;14.83;98.88;101846.19;4966496;28;20073;-73
2023/05/14 01:59:15;;;;;;;10.88;8.85;;;;;;;14.86;97.53;101839.78;4985526;28;20443;-72
2023/05/14 02:01:41;;;;;;;13.68;9.90;;;;;;;14.88;96.74;101840.47;4972326;28;20051;-73
2023/05/14 02:04:08;;;;;;;14.25;8.90;;;;;;;14.87;98.01;101844.09;5009703;28;20085;-73
2023/05/14 02:06:35;;;;;;;12.35;8.77;;;;;;;14.80;97.13;101838.56;4984399;28;20713;-72
2023/05/14 02:09:03;;;;;;;13.48;8.68;;;;;;;14.79;98.99;101841.38;4983762;28;20054;-73
2023/05/14 02:11:30;;;;;;;14.52;9.15;;;;;;;14.72;100.00;101842.94;4965265;28;20051;-74
2023/05/14 02:13:57;;;;;;;13.45;9.23;;;;;;;14.60;100.00;101832.59;4986702;28;20096;-74
2023/05/14 02:16:23;;;;;;;15.98;9.23;;;;;;;14.46;100.00;101835.69;4983648;28;20089;-74
2023/05/14 02:18:50;;;;;;;13.10;8.43;;;;;;;14.43;100.00;101841.28;4965039;28;20059;-74
2023/05/14 02:21:16;;;;;;;12.10;9.20;;;;;;;14.40;100.00;101831.00;4963200;28;20082;-74
2023/05/14 02:23:43;;;;;;;14.88;9.38;;;;;;;14.36;100.00;101833.09;4969484;28;20065;-74
2023/05/14 02:26:10;;;;;;;12.45;9.60;;;;;;;14.31;100.00;101826.59;4973596;28;20050;-74
2023/05/14 02:28:36;;;;;;;11.15;8.65;;;;;;;14.23;100.00;101832.63;4969108;28;20073;-74
2023/05/14 02:31:03;;;;;;;11.80;9.88;;;;;;;14.15;100.00;101822.78;4974609;28;20050;-74
2023/05/14 02:33:30;;;;;;;12.98;9.45;;;;;;;14.06;100.00;101820.19;4974764;28;20465;-74
2023/05/14 02:35:56;;;;;;;18.35;10.40;;;;;;;14.00;100.00;101822.41;4972471;28;20097;-74
2023/05/14 02:38:23;;;;;;;13.35;9.85;;;;;;;13.91;100.00;101820.63;4994726;28;20137;-74
2023/05/14 02:40:49;;;;;;;14.02;9.98;;;;;;;13.83;100.00;101815.25;4985415;28;20054;-74
2023/05/14 02:43:16;;;;;;;11.90;9.60;;;;;;;13.79;100.00;101813.88;4989834;28;20060;-74
2023/05/14 02:45:42;;;;;;;14.35;10.00;;;;;;;13.79;100.00;101816.53;4991301;28;20406;-74
2023/05/14 02:48:09;;;;;;;14.77;10.32;;;;;;;13.78;100.00;101822.75;4965688;28;20123;-74
2023/05/14 02:50:36;;;;;;;13.68;10.35;;;;;;;13.69;100.00;101816.53;4992849;28;20054;-74
2023/05/14 02:53:02;;;;;;;16.38;10.15;;;;;;;13.63;100.00;101817.94;4976358;28;20596;-76
2023/05/14 02:55:29;;;;;;;13.75;10.65;;;;;;;13.64;100.00;101810.84;4989772;28;20152;-76
2023/05/14 02:57:55;;;;;;;15.63;11.20;;;;;;;13.68;100.00;101814.91;4987307;28;20154;-74
2023/05/14 03:00:22;;;;;;;13.60;10.27;;;;;;;13.70;100.00;101815.59;4977637;28;20042;-74
2023/05/14 03:02:50;;;;;;;16.80;10.60;;;;;;;13.65;100.00;101815.16;4977675;28;20050;-73
2023/05/14 03:05:17;;;;;;;15.55;10.15;;;;;;;13.63;100.00;101815.31;4946626;28;20065;-72
2023/05/14 03:07:43;;;;;;;14.55;10.30;;;;;;;13.60;100.00;101826.16;4977108;28;20061;-72
2023/05/14 03:10:10;;;;;;;17.40;9.60;;;;;;;13.58;100.00;101814.06;4977825;28;20062;-72
2023/05/14 03:12:37;;;;;;;15.13;10.30;;;;;;;13.58;100.00;101820.19;4972815;28;20482;-72
2023/05/14 03:15:04;;;;;;;13.50;10.48;;;;;;;13.54;100.00;101823.22;4976789;28;20046;-73
2023/05/14 03:17:30;;;;;;;14.88;11.50;;;;;;;13.52;100.00;101822.53;4946725;28;20505;-72
2023/05/14 03:19:57;;;;;;;13.13;9.75;;;;;;;13.45;100.00;101819.66;4982453;28;20061;-72
2023/05/14 03:22:23;;;;;;;15.80;11.18;;;;;;;13.35;100.00;101816.16;4964816;28;20499;-73
2023/05/14 03:24:50;;;;;;;13.32;10.32;;;;;;;13.32;100.00;101808.56;4971574;28;20054;-72
2023/05/14 03:27:16;;;;;;;16.88;10.65;;;;;;;13.30;100.00;101808.69;4978933;28;20054;-73
2023/05/14 03:29:43;;;;;;;17.25;10.75;;;;;;;13.30;100.00;101803.44;4979457;28;20054;-72
2023/05/14 03:32:09;;;;;;;15.10;10.85;;;;;;;13.32;100.00;101803.28;4973308;28;20058;-72
2023/05/14 03:34:36;;;;;;;15.93;11.05;;;;;;;13.32;100.00;101801.47;4970514;28;20058;-72
2023/05/14 03:37:02;;;;;;;14.93;11.07;;;;;;;13.27;100.00;101801.06;4984614;28;20088;-72
2023/05/14 03:39:29;;;;;;;15.00;10.27;;;;;;;13.24;100.00;101798.69;4979932;28;20057;-72
2023/05/14 03:41:57;;;;;;;15.15;11.63;;;;;;;13.18;100.00;101801.88;4964521;28;20101;-72
2023/05/14 03:44:24;;;;;;;15.70;10.95;;;;;;;13.15;100.00;101804.78;4977753;28;20059;-72
2023/05/14 03:46:51;;;;;;;17.45;12.18;;;;;;;13.06;100.00;101794.13;4970543;28;20051;-72
2023/05/14 03:49:17;;;;;;;14.05;11.10;;;;;;;13.04;100.00;101792.59;4979441;28;20059;-72
2023/05/14 03:51:44;;;;;;;16.75;11.50;;;;;;;13.00;100.00;101792.03;4994772;28;20474;-72
2023/05/14 03:54:10;;;;;;;14.27;11.45;;;;;;;13.01;100.00;101787.59;4992319;28;20054;-72
2023/05/14 03:56:37;;;;;;;16.98;11.90;;;;;;;12.97;100.00;101784.41;4982223;28;20054;-72
2023/05/14 03:59:03;;;;;;;18.10;11.63;;;;;;;12.99;100.00;101785.09;4985004;28;20086;-72
2023/05/14 04:01:30;;;;;;;19.23;11.38;;;;;;;13.02;100.00;101784.84;4969619;28;20057;-72
2023/05/14 04:03:56;;;;;;;16.20;11.02;;;;;;;12.99;100.00;101787.72;4982253;28;20435;-72
2023/05/14 04:06:23;;;;;;;14.93;11.70;;;;;;;12.99;100.00;101786.91;4994119;28;20050;-72
2023/05/14 04:08:49;;;;;;;17.25;11.90;;;;;;;12.94;100.00;101786.50;4976534;28;20054;-72
2023/05/14 04:11:16;;;;;;;20.25;12.10;;;;;;;12.94;100.00;101787.34;4985066;28;20526;-73
2023/05/14 04:13:42;;;;;;;14.60;11.55;;;;;;;12.96;100.00;101792.47;4988135;28;20089;-71
2023/05/14 04:16:09;;;;;;;18.73;12.32;;;;;;;12.96;100.00;101788.03;4980680;28;20054;-72
2023/05/14 04:18:35;;;;;;;15.93;12.48;;;;;;;12.92;100.00;101793.72;4988314;28;20137;-72
2023/05/14 04:21:02;;;;;;;18.73;12.50;;;;;;;12.89;100.00;101792.16;4981327;28;20054;-72
2023/05/14 04:23:30;;;;;;;17.00;12.18;;;;;;;12.90;100.00;101793.84;4965470;28;20062;-72
2023/05/14 04:25:57;;;;;;;17.80;12.32;;;;;;;12.89;100.00;101796.63;4984334;28;20153;-72
2023/05/14 04:28:24;;;;;;;15.75;12.02;;;;;;;12.91;100.00;101792.88;4986275;28;20046;-72
2023/05/14 04:30:51;;;;;;;19.30;12.32;;;;;;;12.83;100.00;101796.19;4987061;28;20076;-72
2023/05/14 04:33:17;;;;;;;25.42;12.55;;;;;;;12.85;100.00;101791.59;4961790;28;20671;-72
2023/05/14 04:35:45;;;;;;;21.48;12.85;;;;;;;12.86;100.00;101789.81;4985813;28;20054;-72
2023/05/14 04:38:13;;;;;;;19.73;12.23;;;;;;;12.84;100.00;101792.59;4968003;28;20458;-72
2023/05/14 04:40:40;;;;;;;22.58;12.45;;;;;;;12.90;100.00;101796.47;4983266;28;20058;-73
2023/05/14 04:43:06;;;;;;;19.48;12.40;;;;;;;12.90;100.00;101790.34;4987757;28;20142;-73
2023/05/14 04:45:33;;;;;;;18.38;12.50;;;;;;;12.95;100.00;101788.97;4983723;28;20064;-72
2023/05/14 04:48:00;;;;;;;16.45;12.02;;;;;;;13.04;100.00;101792.59;4979443;28;20047;-71
2023/05/14 04:50:27;;;;;;;16.10;12.63;;;;;;;13.11;100.00;101798.13;4965763;28;20054;-73
2023/05/14 04:52:54;;;;;;;20.25;13.23;;;;;;;13.17;100.00;101793.16;4963626;28;20161;-72
2023/05/14 04:55:21;;;;;;;16.00;11.38;;;;;;;13.16;100.00;101791.47;4965386;28;20100;-72
2023/05/14 04:57:48;;;;;;;15.38;12.40;;;;;;;13.26;100.00;101794.94;4984585;28;20161;-72
2023/05/14 05:00:16;;;;;;;16.27;12.65;;;;;;;13.30;100.00;101798.16;4969284;28;20050;-73
2023/05/14 05:02:42;;;;;;;18.17;12.07;;;;;;;13.28;100.00;101797.44;4978353;28;20058;-72
2023/05/14 05:05:09;;;;;;;18.63;12.20;;;;;;;13.32;100.00;101796.22;4989146;28;20057;-71
2023/05/14 05:07:35;;;;;;;16.38;12.13;;;;;;;13.38;100.00;101797.44;4961837;28;20052;-72
2023/05/14 05:10:02;;;;;;;16.45;12.38;;;;;;;13.43;100.00;101792.59;4982993;28;20054;-72
2023/05/14 05:12:29;;;;;;;19.73;12.13;;;;;;;13.40;100.00;101796.31;4975771;28;20092;-71
2023/05/14 05:14:56;;;;;;;19.45;12.82;;;;;;;13.50;100.00;101801.59;4976325;28;20050;-73
2023/05/14 05:17:24;;;;;;;16.08;12.23;;;;;;;13.52;100.00;101802.28;4977401;28;20731;-73
2023/05/14 05:19:51;;;;;;;19.67;12.27;;;;;;;13.58;100.00;101801.72;4963516;28;20046;-72
2023/05/14 05:22:18;;;;;;;20.75;12.48;;;;;;;13.61;100.00;101806.72;4986789;28;20054;-73
2023/05/14 05:24:45;;;;;;;18.70;11.27;;;;;;;13.67;100.00;101812.41;4975006;28;20070;-72
2023/05/14 05:27:14;;;;;;;17.17;12.63;;;;;;;13.68;100.00;101795.59;4981286;28;20552;-72
2023/05/14 05:29:41;;;;;;;16.10;10.95;;;;;;;13.72;100.00;101800.44;4968848;28;20521;-72
2023/05/14 05:32:07;;;;;;;18.70;12.20;;;;;;;13.74;100.00;101795.00;4960255;28;20422;-72
2023/05/14 05:34:35;;;;;;;18.30;12.48;;;;;;;13.80;100.00;101805.84;4971135;28;20196;-72
2023/05/14 05:37:02;;;;;;;16.83;12.55;;;;;;;13.82;100.00;101803.06;4979219;28;20421;-72
2023/05/14 05:39:33;;;;;;;24.13;12.35;;;;;;;13.87;100.00;101810.53;4998160;28;20085;-72
2023/05/14 05:42:03;;;;;;;15.18;10.68;;;;;;;13.88;100.00;101805.13;4979213;28;20054;-72
2023/05/14 05:44:30;;;;;;;16.45;11.45;;;;;;;13.92;100.00;101806.50;4980021;28;20054;-72
2023/05/14 05:46:56;;;;;;;17.25;12.43;;;;;;;13.92;100.00;101798.56;4977518;28;20403;-72
2023/05/14 05:49:23;;;;;;;17.15;12.43;;;;;;;13.95;100.00;101808.81;4976877;28;20050;-72
2023/05/14 05:51:50;;;;;;;17.23;11.82;;;;;;;13.96;100.00;101812.31;4963620;28;20064;-72
2023/05/14 05:54:16;;;;;;;16.83;11.98;;;;;;;13.99;100.00;101809.38;4967174;28;20089;-72
2023/05/14 05:56:43;;;;;;;20.85;11.32;;;;;;;14.03;100.00;101811.59;4981441;28;20113;-72
2023/05/14 05:59:09;;;;;;;16.50;10.82;;;;;;;14.08;100.00;101807.69;4964054;28;20046;-72
2023/05/14 06:01:36;;;;;;;18.67;12.02;;;;;;;14.13;100.00;101823.88;4981748;28;20109;-72
2023/05/14 06:04:05;;;;;;;15.07;11.27;;;;;;;14.14;100.00;101815.84;4968100;28;20054;-72
2023/05/14 06:06:31;;;;;;;17.75;11.43;;;;;;;14.18;100.00;101814.56;4972181;28;20494;-72
2023/05/14 06:08:58;;;;;;;15.57;11.02;;;;;;;14.21;100.00;101822.19;4968421;28;20042;-72
2023/05/14 06:11:25;;;;;;;15.45;11.30;;;;;;;14.27;100.00;101820.78;4967921;28;20047;-72
2023/05/14 06:13:52;;;;;;;17.40;12.38;;;;;;;14.23;100.00;101814.16;4979472;28;20088;-72
2023/05/14 06:16:18;;;;;;;13.77;11.38;;;;;;;14.23;100.00;101812.34;4979576;28;20072;-72
2023/05/14 06:18:45;;;;;;;17.60;11.52;;;;;;;14.28;100.00;101814.53;4974023;28;20075;-72
2023/05/14 06:21:12;;;;;;;19.05;12.05;;;;;;;14.27;100.00;101812.03;4974797;28;20054;-72
2023/05/14 06:23:39;;;;;;;17.48;11.75;;;;;;;14.27;100.00;101812.03;4969767;28;20055;-72
2023/05/14 06:26:05;;;;;;;13.90;10.95;;;;;;;14.26;100.00;101808.56;4973394;28;20050;-72
2023/05/14 06:28:32;;;;;;;19.08;11.48;;;;;;;14.38;100.00;101817.13;4975995;28;20046;-72
2023/05/14 06:30:58;;;;;;;17.88;11.77;;;;;;;14.44;100.00;101824.44;4986816;28;20055;-72
2023/05/14 06:33:29;;;;;;;18.48;11.70;;;;;;;14.52;100.00;101821.88;4982983;28;20491;-72
2023/05/14 06:36:02;;;;;;;18.48;11.98;;;;;;;14.63;100.00;101819.06;4982089;28;20050;-72
2023/05/14 06:38:29;;;;;;;17.00;11.57;;;;;;;14.66;100.00;101825.03;4983195;28;20050;-72
2023/05/14 06:40:55;;;;;;;15.73;10.13;;;;;;;14.69;100.00;101809.72;4961611;28;20050;-72
2023/05/14 06:43:22;;;;;;;16.60;11.50;;;;;;;14.73;100.00;101819.03;4972522;28;20093;-72
2023/05/14 06:45:49;;;;;;;18.40;10.93;;;;;;;14.80;100.00;101816.63;4967592;28;20082;-72
2023/05/14 06:48:20;;;;;;;18.42;11.63;;;;;;;14.85;100.00;101824.91;4985141;28;20059;-73
2023/05/14 06:50:47;;;;;;;21.27;11.90;;;;;;;14.89;100.00;101821.00;4983275;28;20061;-72
2023/05/14 06:53:14;;;;;;;14.30;10.23;;;;;;;14.95;100.00;101822.19;4961300;28;20057;-72
2023/05/14 06:55:41;;;;;;;16.83;10.85;;;;;;;14.99;100.00;101803.28;4984965;28;20101;-72
2023/05/14 06:58:07;;;;;;;15.65;11.50;;;;;;;15.07;100.00;101804.31;4984318;28;20054;-72
2023/05/14 07:00:34;;;;;;;17.65;10.85;;;;;;;15.06;100.00;101806.13;4985203;28;20051;-72
2023/05/14 07:03:01;;;;;;;14.05;10.27;;;;;;;15.13;100.00;101803.69;4979464;28;20089;-72
2023/05/14 07:05:27;;;;;;;18.08;10.65;;;;;;;15.23;100.00;101805.28;4978911;28;20414;-72
2023/05/14 07:07:54;;;;;;;13.40;10.05;;;;;;;15.33;100.00;101814.94;4980711;28;20050;-72
2023/05/14 07:10:21;;;;;;;11.13;8.18;;;;;;;15.41;100.00;101799.97;4977894;28;20065;-71
2023/05/14 07:12:48;;;;;;;15.32;10.70;;;;;;;15.48;100.00;101802.81;4987094;28;20129;-72
2023/05/14 07:15:15;;;;;;;14.50;10.10;;;;;;;15.58;100.00;101808.00;4982376;28;20053;-72
2023/05/14 07:17:41;;;;;;;17.60;10.45;;;;;;;15.65;100.00;101801.13;4983476;28;20058;-73
2023/05/14 07:20:08;;;;;;;12.73;9.98;;;;;;;15.72;100.00;101801.31;4966473;28;20216;-73
2023/05/14 07:22:35;;;;;;;14.60;9.35;;;;;;;15.78;100.00;101804.22;4971588;28;20412;-72
2023/05/14 07:25:02;;;;;;;13.82;9.98;;;;;;;15.85;99.87;101799.09;4970691;28;20486;-72
2023/05/14 07:27:28;;;;;;;14.15;9.52;;;;;;;15.96;98.55;101803.31;4975427;28;20501;-73
2023/05/14 07:29:55;;;;;;;14.55;8.73;;;;;;;16.04;95.98;101799.88;4974720;28;20061;-73
2023/05/14 07:32:23;;;;;;;17.08;10.05;;;;;;;16.08;94.63;101809.16;4968551;28;20119;-73
2023/05/14 07:34:50;;;;;;;12.75;9.23;;;;;;;16.11;95.73;101795.59;4967194;28;20063;-72
2023/05/14 07:37:17;;;;;;;12.43;7.47;;;;;;;16.25;96.35;101802.94;4964095;28;20555;-72
2023/05/14 07:39:43;;;;;;;11.75;8.80;;;;;;;16.25;94.16;101792.34;4976250;28;20141;-72
2023/05/14 07:42:10;;;;;;;13.60;9.85;;;;;;;16.31;93.36;101797.00;4983708;28;20149;-72
2023/05/14 07:44:44;;;;;;;13.65;9.40;;;;;;;16.41;94.99;101789.75;4975418;28;20792;-73
2023/05/14 07:47:11;;;;;;;17.23;9.63;;;;;;;16.51;95.53;101796.72;4970691;28;20120;-74
2023/05/14 07:49:37;;;;;;;11.55;8.50;;;;;;;16.50;93.86;101785.28;4975238;28;20076;-73
2023/05/14 07:52:04;;;;;;;14.93;9.40;;;;;;;16.55;95.14;101775.06;4979255;28;20066;-73
2023/05/14 07:54:30;;;;;;;11.90;8.82;;;;;;;16.58;92.85;101782.69;4991052;28;20050;-73
2023/05/14 07:56:57;;;;;;;11.27;8.70;;;;;;;16.65;95.72;101782.03;4974430;28;20109;-73
2023/05/14 07:59:23;;;;;;;16.90;9.07;;;;;;;16.67;94.67;101785.34;4977214;28;20057;-72
2023/05/14 08:01:50;;;;;;;13.05;8.25;;;;;;;16.77;94.58;101778.06;4977074;28;20062;-74
2023/05/14 08:04:17;;;;;;;14.90;8.43;;;;;;;16.84;95.73;101781.75;4983371;28;20090;-73
2023/05/14 08:06:43;;;;;;;18.02;8.57;;;;;;;16.93;95.97;101777.28;4969293;28;20510;-74
2023/05/14 08:09:10;;;;;;;12.27;7.72;;;;;;;17.00;94.43;101776.44;4969454;28;20418;-73
2023/05/14 08:11:38;;;;;;;13.25;7.03;;;;;;;17.09;95.86;101773.78;4969832;28;20509;-74
2023/05/14 08:14:04;;;;;;;16.33;9.02;;;;;;;17.16;94.20;101774.81;4972343;28;20561;-72
2023/05/14 08:16:31;;;;;;;12.48;8.25;;;;;;;17.28;93.23;101778.75;4981254;28;20973;-74
2023/05/14 08:18:57;;;;;;;14.45;8.35;;;;;;;17.41;92.81;101774.78;4979602;28;20626;-74
2023/05/14 08:21:24;;;;;;;14.65;8.02;;;;;;;17.66;93.25;101776.38;4979220;28;20050;-73
2023/05/14 08:23:50;;;;;;;61.53;9.85;;;;;;;17.91;92.25;101785.09;4983300;28;20050;-71
2023/05/14 08:26:17;;;;;;;15.27;7.47;;;;;;;18.28;88.42;101780.97;4980732;28;20054;-73
2023/05/14 08:28:43;;;;;;;10.88;6.75;;;;;;;18.59;83.17;101780.16;4967723;28;20050;-71
2023/05/14 08:31:10;;;;;;;12.07;7.38;;;;;;;18.87;81.08;101774.31;4975497;28;20054;-72
2023/05/14 08:33:36;;;;;;;9.20;7.07;;;;;;;19.08;78.54;101786.97;4985164;28;20571;-72
2023/05/14 08:36:03;;;;;;;9.85;6.45;;;;;;;19.42;75.02;101773.16;4985816;28;20050;-72
2023/05/14 08:38:30;;;;;;;12.90;6.97;;;;;;;19.85;72.17;101772.59;4972740;28;20081;-73
2023/05/14 08:40:59;;;;;;;9.00;6.18;;;;;;;20.18;69.27;101772.19;4984698;28;20046;-73
2023/05/14 08:43:34;;;;;;;9.23;6.13;;;;;;;20.29;70.06;101766.38;4968167;28;20055;-72
2023/05/14 08:46:04;;;;;;;8.93;5.35;;;;;;;20.31;66.32;101770.50;4966415;28;20145;-73
2023/05/14 08:48:33;;;;;;;8.90;6.13;;;;;;;20.39;68.20;101772.22;4964442;28;21238;-71
2023/05/14 08:51:00;;;;;;;11.82;6.25;;;;;;;20.43;70.11;101770.00;4969041;28;20054;-71
2023/05/14 08:53:27;;;;;;;13.07;5.47;;;;;;;20.53;69.22;101773.19;4975732;28;20140;-72
2023/05/14 08:55:54;;;;;;;8.70;6.03;;;;;;;20.48;64.32;101768.44;4975027;28;20169;-73
2023/05/14 08:58:20;;;;;;;9.18;5.30;;;;;;;20.53;66.57;101767.84;4981137;28;20145;-71
2023/05/14 09:00:47;;;;;;;8.20;5.35;;;;;;;20.53;61.37;101763.34;4972426;28;20058;-72
2023/05/14 09:03:14;;;;;;;9.23;5.45;;;;;;;20.62;63.34;101761.44;4967110;28;20054;-71
2023/05/14 09:05:41;;;;;;;10.13;5.87;;;;;;;21.13;63.23;101763.09;4974837;28;20058;-72
2023/05/14 09:08:08;;;;;;;7.10;5.50;;;;;;;21.49;58.99;101756.78;4967520;28;20661;-73
2023/05/14 09:10:34;;;;;;;9.25;6.00;;;;;;;21.94;62.93;101753.75;4972247;28;20047;-71
2023/05/14 09:13:01;;;;;;;7.90;5.20;;;;;;;21.86;55.68;101747.53;4975321;28;20263;-72
2023/05/14 09:15:28;;;;;;;7.40;5.20;;;;;;;21.97;55.55;101740.78;4981648;28;20054;-72
2023/05/14 09:17:55;;;;;;;6.80;4.68;;;;;;;22.06;55.51;101744.13;4965494;28;20061;-72
2023/05/14 09:20:23;;;;;;;6.50;4.40;;;;;;;22.34;54.52;101740.53;4978449;28;20050;-72
2023/05/14 09:22:53;;;;;;;5.75;4.32;;;;;;;22.16;53.76;101743.75;4972065;28;20050;-72
2023/05/14 09:25:26;;;;;;;7.05;4.20;;;;;;;22.31;53.38;101736.44;4962246;28;20425;-71
2023/05/14 09:27:53;;;;;;;8.45;4.55;;;;;;;22.51;54.51;101734.59;4972081;28;21030;-72
2023/05/14 09:30:25;;;;;;;8.93;4.65;;;;;;;22.73;53.84;101733.59;4975544;28;20058;-72
2023/05/14 09:32:53;;;;;;;9.93;4.30;;;;;;;23.05;54.21;101729.28;4969350;28;20054;-73
2023/05/14 09:35:22;;;;;;;7.70;4.22;;;;;;;23.19;50.76;101725.59;4962699;28;20050;-72
2023/05/14 09:37:54;;;;;;;11.40;4.38;;;;;;;23.29;49.19;101712.59;4985156;28;20510;-73
2023/05/14 09:40:22;;;;;;;6.78;4.10;;;;;;;23.56;51.21;101712.53;4982464;28;20057;-73
2023/05/14 09:42:50;;;;;;;11.82;4.43;;;;;;;23.80;51.11;101721.72;4962163;28;20137;-73
2023/05/14 09:45:16;;;;;;;8.88;4.40;;;;;;;23.93;50.24;101714.66;4954421;28;20058;-73
2023/05/14 09:47:43;;;;;;;6.75;4.03;;;;;;;24.16;50.36;101711.44;4955836;28;20061;-73
2023/05/14 09:50:11;;;;;;;10.57;4.75;;;;;;;23.91;46.75;101706.81;4983170;28;20502;-72
2023/05/14 09:52:38;;;;;;;10.98;4.22;;;;;;;24.15;48.99;101705.28;4960813;28;20173;-73
2023/05/14 09:55:05;;;;;;;8.93;4.43;;;;;;;24.19;46.41;101694.94;4985227;28;20050;-72
2023/05/14 09:57:32;;;;;;;5.15;3.17;;;;;;;24.36;43.62;101682.63;4971877;28;20062;-74
2023/05/14 09:59:58;;;;;;;8.10;3.60;;;;;;;24.53;43.62;101695.56;4979837;28;20088;-72
2023/05/14 10:02:35;;;;;;;4.20;3.22;;;;;;;24.78;45.38;101693.69;4969221;28;20058;-74
2023/05/14 10:05:05;;;;;;;4.78;2.80;;;;;;;25.11;45.21;101691.72;4962885;28;20511;-73
2023/05/14 10:07:43;;;;;;;5.18;2.90;;;;;;;25.34;40.46;101697.28;4982448;28;20081;-74
2023/05/14 10:10:14;;;;;;;7.30;3.10;;;;;;;25.58;40.61;101698.25;4976651;28;20161;-73
2023/05/14 10:12:45;;;;;;;4.93;3.10;;;;;;;25.62;39.23;101693.28;4987357;28;20113;-73
2023/05/14 10:15:16;;;;;;;4.28;3.30;;;;;;;25.83;40.44;101689.25;4983502;28;20054;-75
2023/05/14 10:17:48;;;;;;;6.38;3.50;;;;;;;25.91;38.16;101682.78;4972553;28;20118;-74
2023/05/14 10:20:16;;;;;;;5.07;3.17;;;;;;;26.03;40.14;101692.53;5002417;28;20157;-76
2023/05/14 10:22:42;;;;;;;6.05;3.40;;;;;;;25.98;42.05;101687.00;4976999;28;20038;-74
2023/05/14 10:25:10;;;;;;;6.93;4.00;;;;;;;26.20;44.38;101690.00;4971570;28;20494;-74
2023/05/14 10:27:37;;;;;;;5.78;3.80;;;;;;;26.38;45.20;101686.44;4965538;28;20069;-75
2023/05/14 10:30:09;;;;;;;9.98;4.22;;;;;;;26.32;43.75;101681.97;4969042;28;20065;-74
2023/05/14 10:32:36;;;;;;;7.38;4.10;;;;;;;26.51;45.91;101687.25;4978693;28;20088;-75
2023/05/14 10:35:16;;;;;;;7.47;4.72;;;;;;;26.70;43.95;101678.06;4979077;28;20385;-76
2023/05/14 10:37:44;;;;;;;6.70;4.32;;;;;;;26.92;44.28;101680.19;4969671;28;20061;-74
2023/05/14 10:40:12;;;;;;;7.57;4.53;;;;;;;26.98;43.72;101676.53;4972726;28;20050;-77
2023/05/14 10:42:44;;;;;;;6.10;4.70;;;;;;;27.06;43.89;101673.47;4971811;28;20467;-73
2023/05/14 10:45:12;;;;;;;6.45;4.65;;;;;;;27.18;42.35;101671.59;4977324;28;20869;-73
2023/05/14 10:47:45;;;;;;;9.85;5.22;;;;;;;27.20;42.59;101665.97;4969459;28;20054;-75
2023/05/14 10:50:14;;;;;;;5.97;4.10;;;;;;;27.05;40.07;101658.41;4961549;28;20120;-75
2023/05/14 10:52:42;;;;;;;5.07;3.70;;;;;;;27.28;43.27;101662.13;4976237;28;20058;-76
2023/05/14 10:55:11;;;;;;;;;;;;;;;27.36;41.20;101656.34;4985317;28;20046;-76
2023/05/14 10:57:40;;;;;;;5.70;4.38;;;;;;;27.53;41.25;101662.63;4963994;28;19945;-74
2023/05/14 11:00:09;;;;;;;5.88;4.32;;;;;;;27.69;41.83;101652.16;4969211;28;20138;-75
2023/05/14 11:02:39;;;;;;;7.47;4.10;;;;;;;27.87;40.15;101657.31;4984113;28;20058;-74
2023/05/14 11:05:12;;;;;;;6.78;4.82;;;;;;;27.86;40.80;101655.72;4990268;28;20077;-74
2023/05/14 11:07:56;;;;;;;7.68;4.40;;;;;;;27.67;40.30;101647.00;4971418;28;20053;-73
2023/05/14 11:10:28;;;;;;;7.80;4.03;;;;;;;27.86;40.58;101649.50;4979913;28;20488;-75
2023/05/14 11:12:59;;;;;;;4.35;3.40;;;;;;;28.14;40.32;101646.78;4986345;28;20050;-76